Time;durP1;ratioP1;P1;durP2;ratioP2;P2;SDS_P1;SDS_P2;PMS_P1;PMS_P2;Temp;Humidity;BMP_temperature;BMP_pressure;BME280_temperature;BME280_humidity;BME280_pressure;Samples;Min_cycle;Max_cycle;Signal;HPM_P1;HPM_P2
2023/09/11 05:10:24;;;;;;;16.20;12.65;;;;;;;18.23;100.00;101122.66;5833660;23;20080;-96
2023/09/11 05:12:49;;;;;;;19.47;12.77;;;;;;;18.03;100.00;101091.31;4950488;29;20613;-96
2023/09/11 05:35:57;;;;;;;20.05;13.70;;;;;;;18.42;100.00;101140.72;5451505;23;20063;-95
2023/09/11 05:38:23;;;;;;;18.40;12.80;;;;;;;18.42;100.00;101135.31;5228340;23;20081;-96
2023/09/11 05:40:51;;;;;;;21.73;13.15;;;;;;;18.54;100.00;101156.47;4952382;29;20419;-95
2023/09/11 05:43:24;;;;;;;18.60;12.63;;;;;;;18.35;100.00;101121.34;5153662;23;20190;-96
2023/09/11 06:01:36;;;;;;;18.40;9.40;;;;;;;18.66;100.00;101131.53;5838461;23;20027;-96
2023/09/11 06:14:25;;;;;;;14.67;9.53;;;;;;;19.06;100.00;101154.28;5206282;23;20342;-96
2023/09/11 06:16:54;;;;;;;13.88;9.18;;;;;;;19.03;100.00;101144.03;4938899;29;20027;-96
2023/09/11 06:22:04;;;;;;;18.38;9.93;;;;;;;19.19;100.00;101162.66;5259635;23;20055;-96
2023/09/11 06:24:29;;;;;;;16.38;9.25;;;;;;;19.25;100.00;101166.88;4960753;28;20035;-96
2023/09/11 06:32:15;;;;;;;17.83;8.95;;;;;;;19.46;100.00;101185.38;5071876;23;20062;-96
2023/09/11 07:10:54;;;;;;;13.48;8.35;;;;;;;20.38;100.00;101197.69;4989500;23;20060;-94
2023/09/11 07:13:23;;;;;;;15.20;8.50;;;;;;;20.41;100.00;101195.16;4952879;29;20027;-95
2023/09/11 07:16:23;;;;;;;16.33;8.37;;;;;;;20.51;100.00;101188.63;4943765;29;20283;-94
2023/09/11 07:18:49;;;;;;;18.10;8.27;;;;;;;20.57;100.00;101186.53;4946052;29;20047;-94
2023/09/11 07:21:34;;;;;;;16.00;8.10;;;;;;;20.67;100.00;101180.00;4955352;28;20096;-93
2023/09/11 07:24:00;;;;;;;16.13;8.27;;;;;;;20.77;100.00;101176.19;4958328;28;20016;-93
2023/09/11 07:26:25;;;;;;;12.53;8.30;;;;;;;20.84;100.00;101177.31;4941464;29;20028;-95
2023/09/11 07:28:59;;;;;;;17.77;8.67;;;;;;;20.92;100.00;101178.44;4949982;29;20024;-94
2023/09/11 07:31:25;;;;;;;10.27;8.38;;;;;;;20.96;100.00;101164.97;4942746;28;20024;-93
2023/09/11 07:33:52;;;;;;;19.20;9.07;;;;;;;20.97;100.00;101178.28;4932015;29;20034;-94
2023/09/11 07:36:20;;;;;;;15.95;9.07;;;;;;;;;;4919081;29;20032;-94
2023/09/11 07:38:46;;;;;;;17.50;9.45;;;;;;;21.20;100.00;101178.09;4917824;29;20025;-94
2023/09/11 07:41:16;;;;;;;16.33;10.00;;;;;;;21.27;100.00;101186.59;4932985;29;20059;-93
2023/09/11 07:43:46;;;;;;;19.85;10.15;;;;;;;21.37;100.00;101190.09;4932216;29;20459;-95
2023/09/11 07:46:11;;;;;;;18.02;9.35;;;;;;;21.46;100.00;101188.97;4919147;29;20477;-93
2023/09/11 07:48:37;;;;;;;18.30;9.33;;;;;;;21.55;100.00;101188.94;4920863;29;20122;-93
2023/09/11 07:51:02;;;;;;;17.13;10.00;;;;;;;21.53;100.00;101185.78;4933739;29;20027;-94
2023/09/11 07:53:28;;;;;;;15.80;9.77;;;;;;;21.64;100.00;101188.97;4932541;29;20799;-93
2023/09/11 07:55:53;;;;;;;21.97;10.60;;;;;;;21.66;100.00;101180.47;4918338;29;20031;-93
2023/09/11 07:58:19;;;;;;;24.27;10.57;;;;;;;21.81;100.00;101190.84;4914987;29;20366;-93
2023/09/11 08:00:44;;;;;;;19.37;11.03;;;;;;;21.80;100.00;101200.16;4915498;29;20039;-96
2023/09/11 08:03:09;;;;;;;19.00;11.57;;;;;;;21.88;100.00;101196.63;4930413;29;20028;-96
2023/09/11 08:05:35;;;;;;;20.43;11.03;;;;;;;21.92;100.00;101203.00;4932771;29;20488;-93
2023/09/11 08:08:02;;;;;;;18.42;10.82;;;;;;;22.00;100.00;101217.72;4933388;29;20020;-96
2023/09/11 08:10:28;;;;;;;20.47;10.93;;;;;;;22.09;100.00;101217.72;4932830;29;20467;-95
2023/09/11 08:12:53;;;;;;;22.85;11.88;;;;;;;22.16;100.00;101217.22;4932789;29;20217;-95
2023/09/11 08:15:20;;;;;;;19.83;11.53;;;;;;;22.17;100.00;101213.38;4931513;29;20035;-95
2023/09/11 08:17:46;;;;;;;21.15;12.60;;;;;;;22.22;100.00;101205.78;4931817;29;20253;-91
2023/09/11 08:20:11;;;;;;;20.42;12.68;;;;;;;22.29;100.00;101209.91;4932807;29;20031;-91
2023/09/11 08:22:37;;;;;;;22.90;12.97;;;;;;;22.33;100.00;101208.13;4927445;29;20039;-91
2023/09/11 08:25:02;;;;;;;21.93;13.03;;;;;;;22.44;100.00;101216.78;4923102;29;20035;-91
2023/09/11 08:27:28;;;;;;;20.98;14.20;;;;;;;22.53;100.00;101229.25;4930885;29;20444;-91
2023/09/11 08:29:55;;;;;;;20.30;13.57;;;;;;;22.60;100.00;101222.50;4934581;29;20038;-92
2023/09/11 08:32:21;;;;;;;20.00;13.40;;;;;;;22.64;100.00;101212.50;4931957;29;20063;-92
2023/09/11 08:34:46;;;;;;;27.90;15.02;;;;;;;22.71;100.00;101211.97;4930314;29;20657;-91
2023/09/11 08:37:25;;;;;;;22.13;13.53;;;;;;;22.79;100.00;101219.31;4932122;29;20031;-91
2023/09/11 08:39:50;;;;;;;19.73;13.30;;;;;;;22.83;100.00;101214.78;4931766;29;20436;-91
2023/09/11 08:42:16;;;;;;;20.97;14.27;;;;;;;22.92;100.00;101217.44;4929802;29;20063;-90
2023/09/11 08:44:41;;;;;;;28.83;15.67;;;;;;;23.01;100.00;101214.66;4930886;29;20032;-91
2023/09/11 08:47:08;;;;;;;22.95;15.20;;;;;;;23.06;100.00;101217.19;4929198;29;20043;-90
2023/09/11 08:49:41;;;;;;;22.07;14.07;;;;;;;23.16;100.00;101216.00;4934484;29;20028;-90
2023/09/11 08:52:11;;;;;;;27.20;15.33;;;;;;;23.22;100.00;101222.84;4933987;29;20291;-89
2023/09/11 08:54:40;;;;;;;21.77;14.98;;;;;;;23.27;100.00;101228.13;4934357;29;20027;-90
2023/09/11 08:57:06;;;;;;;26.17;17.38;;;;;;;23.30;100.00;101227.47;4934010;29;20126;-89
2023/09/11 08:59:36;;;;;;;23.10;16.25;;;;;;;23.41;100.00;101231.38;4934737;29;20034;-89
2023/09/11 09:02:03;;;;;;;24.92;14.85;;;;;;;23.48;100.00;101230.03;4933649;29;20199;-90
2023/09/11 09:04:29;;;;;;;20.25;15.45;;;;;;;23.48;100.00;101219.09;4933342;29;20130;-90
2023/09/11 09:06:55;;;;;;;22.13;14.83;;;;;;;23.60;100.00;101227.34;4933548;29;20440;-90
2023/09/11 09:09:24;;;;;;;24.27;14.27;;;;;;;23.71;100.00;101224.97;4934585;29;20889;-90
2023/09/11 09:11:49;;;;;;;18.27;13.60;;;;;;;23.79;100.00;101228.75;4929501;29;20036;-90
2023/09/11 09:14:18;;;;;;;28.83;16.53;;;;;;;23.80;100.00;101216.66;4934416;29;20416;-90
2023/09/11 09:16:47;;;;;;;23.88;15.65;;;;;;;23.85;100.00;101217.25;4929287;29;20117;-89
2023/09/11 09:19:12;;;;;;;24.73;14.90;;;;;;;23.93;100.00;101221.03;4933023;29;20034;-89
2023/09/11 09:22:11;;;;;;;24.60;14.98;;;;;;;23.97;100.00;101224.72;4934070;29;20036;-89
2023/09/11 09:24:45;;;;;;;24.60;14.67;;;;;;;24.19;100.00;101234.41;4897001;29;20044;-89
2023/09/11 09:27:11;;;;;;;25.60;13.90;;;;;;;24.23;100.00;101226.34;4930315;29;20050;-89
2023/09/11 09:29:38;;;;;;;25.37;14.20;;;;;;;24.30;100.00;101225.75;4933663;29;20024;-89
2023/09/11 09:32:05;;;;;;;19.75;12.32;;;;;;;24.40;100.00;101228.03;4931778;29;20087;-89
2023/09/11 09:34:35;;;;;;;20.88;12.77;;;;;;;24.48;100.00;101229.06;4951854;29;20039;-89
2023/09/11 09:37:01;;;;;;;22.02;13.05;;;;;;;24.57;100.00;101227.00;4950748;29;20561;-89
2023/09/11 09:39:28;;;;;;;15.38;10.45;;;;;;;24.71;96.94;101236.81;4952425;29;20031;-90
2023/09/11 09:42:07;;;;;;;20.65;11.85;;;;;;;24.77;97.31;101224.50;4951473;29;20479;-89
2023/09/11 09:44:34;;;;;;;24.87;13.33;;;;;;;24.88;96.54;101231.09;4952367;29;20031;-89
2023/09/11 09:47:11;;;;;;;17.00;13.02;;;;;;;24.85;96.69;101220.81;4957918;29;20039;-89
2023/09/11 09:49:44;;;;;;;21.23;13.57;;;;;;;25.03;96.87;101232.31;4951127;29;20035;-89
2023/09/11 09:52:09;;;;;;;22.52;12.60;;;;;;;25.02;92.33;101227.97;4952325;29;20028;-89
2023/09/11 09:54:50;;;;;;;15.53;11.10;;;;;;;25.09;94.66;101222.72;4952465;29;20102;-90
2023/09/11 09:57:18;;;;;;;19.17;11.70;;;;;;;25.30;94.66;101229.13;4952860;28;20031;-90
2023/09/11 09:59:52;;;;;;;20.73;11.43;;;;;;;25.38;94.23;101223.50;4951149;29;20027;-90
2023/09/11 10:02:28;;;;;;;23.02;11.30;;;;;;;25.41;95.11;101224.72;4952433;29;20026;-90
2023/09/11 10:04:55;;;;;;;18.70;10.88;;;;;;;25.51;92.33;101226.19;4951995;29;20039;-90
2023/09/11 10:07:43;;;;;;;23.53;12.20;;;;;;;25.57;93.17;101226.72;4950061;29;20355;-90
2023/09/11 10:10:25;;;;;;;15.67;11.50;;;;;;;25.62;91.89;101232.78;4946420;29;20291;-89
2023/09/11 10:12:53;;;;;;;18.95;10.70;;;;;;;25.66;89.19;101235.63;4932912;29;20106;-90
2023/09/11 10:15:21;;;;;;;13.40;8.65;;;;;;;25.78;89.53;101238.28;4933911;29;20126;-89
2023/09/11 10:17:46;;;;;;;16.20;8.73;;;;;;;25.89;88.93;101227.56;4945246;29;20031;-89
2023/09/11 10:20:12;;;;;;;19.10;9.23;;;;;;;25.90;84.45;101220.16;4952852;29;20029;-90
2023/09/11 10:22:37;;;;;;;18.42;10.07;;;;;;;25.98;84.38;101230.97;4951919;29;20023;-89
2023/09/11 10:25:03;;;;;;;18.67;10.77;;;;;;;25.97;84.42;101217.56;4951539;29;20050;-90
2023/09/11 10:27:28;;;;;;;18.02;10.25;;;;;;;25.99;84.89;101215.28;4950819;29;20031;-90
2023/09/11 10:30:02;;;;;;;17.47;8.40;;;;;;;26.17;83.64;101225.94;4951263;29;20027;-90
2023/09/11 10:32:37;;;;;;;13.85;9.48;;;;;;;26.20;81.33;101212.28;4952057;29;20450;-89
2023/09/11 10:35:04;;;;;;;15.13;9.10;;;;;;;26.29;80.78;101207.41;4951859;29;20038;-90
2023/09/11 10:37:31;;;;;;;20.90;9.53;;;;;;;26.32;81.84;101200.38;4951157;29;20039;-89
2023/09/11 10:39:59;;;;;;;12.83;8.37;;;;;;;26.52;81.52;101194.94;4951128;29;20287;-90
2023/09/11 10:42:24;;;;;;;11.30;7.40;;;;;;;26.68;79.68;101209.44;4951510;29;20027;-90
2023/09/11 10:44:53;;;;;;;12.07;8.43;;;;;;;26.78;78.67;101205.31;4950035;29;20020;-89
2023/09/11 10:47:19;;;;;;;12.27;7.23;;;;;;;26.83;76.78;101205.06;4950663;29;20526;-90
2023/09/11 10:49:49;;;;;;;10.70;7.43;;;;;;;26.99;76.68;101210.50;4951068;29;20279;-89
2023/09/11 10:52:15;;;;;;;11.07;7.47;;;;;;;27.09;77.92;101208.31;4949260;29;20054;-89
2023/09/11 10:54:41;;;;;;;11.32;7.25;;;;;;;27.19;76.11;101211.28;4949124;29;20038;-90
2023/09/11 10:57:07;;;;;;;11.02;7.60;;;;;;;27.15;74.47;101202.16;4949014;29;20027;-89
2023/09/11 10:59:33;;;;;;;11.63;6.63;;;;;;;27.27;74.27;101195.72;4953907;29;20020;-90
2023/09/11 11:01:58;;;;;;;12.25;6.95;;;;;;;27.38;75.19;101203.41;4951345;29;20042;-90
2023/09/11 11:04:24;;;;;;;12.90;6.70;;;;;;;27.50;72.52;101211.50;4951605;29;20030;-90
2023/09/11 11:06:53;;;;;;;9.35;6.50;;;;;;;27.61;72.57;101189.69;4950510;28;20042;-90
2023/09/11 11:09:27;;;;;;;14.20;7.28;;;;;;;27.78;72.98;101202.16;4949250;29;20050;-89
2023/09/11 11:11:56;;;;;;;10.38;7.25;;;;;;;27.81;70.32;101195.91;4948183;29;20027;-90
2023/09/11 11:14:23;;;;;;;10.80;7.18;;;;;;;28.00;71.72;101206.06;4950765;29;20035;-89
2023/09/11 11:17:09;;;;;;;12.50;6.85;;;;;;;28.09;70.60;101194.78;4949704;29;20040;-89
2023/09/11 11:19:40;;;;;;;12.83;7.57;;;;;;;28.14;68.62;101199.22;4951277;29;20062;-89
2023/09/11 11:22:08;;;;;;;15.85;8.38;;;;;;;28.23;66.70;101192.28;4949378;29;20055;-89
2023/09/11 11:24:49;;;;;;;12.77;7.85;;;;;;;28.37;67.22;101199.16;4951336;29;20107;-89
2023/09/11 11:27:14;;;;;;;11.25;7.15;;;;;;;28.50;63.63;101196.97;4950021;29;20035;-90
2023/09/11 11:29:40;;;;;;;12.17;7.10;;;;;;;28.61;63.22;101197.13;4951311;29;20134;-89
2023/09/11 11:32:09;;;;;;;15.25;7.25;;;;;;;28.68;64.04;101194.44;4950454;29;20110;-89
2023/09/11 11:34:35;;;;;;;10.75;7.30;;;;;;;28.62;62.73;101184.94;4951550;29;20115;-89
2023/09/11 11:37:03;;;;;;;8.27;6.70;;;;;;;28.76;64.71;101193.41;4932069;29;20059;-89
2023/09/11 11:39:29;;;;;;;10.50;6.65;;;;;;;28.85;63.69;101171.84;4942603;29;20027;-89
2023/09/11 11:41:55;;;;;;;18.90;8.00;;;;;;;28.98;62.71;101193.69;4931085;29;20028;-89
2023/09/11 11:44:22;;;;;;;11.30;6.60;;;;;;;29.05;62.65;101191.00;4932586;29;20436;-89
2023/09/11 11:46:47;;;;;;;9.25;6.50;;;;;;;29.08;61.30;101184.72;4933831;29;20047;-90
2023/09/11 11:49:18;;;;;;;10.13;6.15;;;;;;;29.37;63.92;101196.09;4950719;29;20046;-89
2023/09/11 11:51:44;;;;;;;11.52;6.57;;;;;;;29.47;60.69;101191.88;4949765;29;20027;-88
2023/09/11 11:54:24;;;;;;;10.00;5.60;;;;;;;29.50;61.17;101191.09;4951593;29;20067;-89
2023/09/11 11:56:57;;;;;;;8.75;6.32;;;;;;;29.54;60.56;101186.41;4948438;29;20032;-88
2023/09/11 11:59:22;;;;;;;11.73;6.70;;;;;;;29.46;59.80;101190.28;4953757;29;20249;-88
2023/09/11 12:01:48;;;;;;;14.77;6.60;;;;;;;29.50;57.43;101187.53;4947243;29;20020;-89
2023/09/11 12:04:13;;;;;;;10.33;6.17;;;;;;;29.61;59.24;101188.41;4962030;28;20069;-88
2023/09/11 12:06:39;;;;;;;8.00;5.20;;;;;;;29.77;57.15;101194.47;4951574;28;20031;-88
2023/09/11 12:09:04;;;;;;;8.93;5.50;;;;;;;29.82;55.41;101190.59;4934197;29;20110;-89
2023/09/11 12:11:30;;;;;;;9.35;5.68;;;;;;;29.86;56.29;101182.31;4950987;29;20479;-88
2023/09/11 12:13:56;;;;;;;7.72;5.85;;;;;;;29.82;56.96;101187.03;4951159;29;20450;-88
2023/09/11 12:16:22;;;;;;;9.13;5.80;;;;;;;29.92;56.29;101198.16;4953315;29;20035;-88
2023/09/11 12:18:47;;;;;;;7.88;5.35;;;;;;;29.99;54.55;101202.97;4949898;28;20633;-88
2023/09/11 12:21:13;;;;;;;9.80;5.47;;;;;;;29.98;54.38;101195.84;4953440;29;20059;-89
2023/09/11 12:23:38;;;;;;;12.50;5.80;;;;;;;30.05;55.05;101195.13;4956588;29;20032;-89
2023/09/11 12:26:04;;;;;;;8.20;5.57;;;;;;;30.20;54.80;101193.25;4960562;28;20054;-89
2023/09/11 12:28:30;;;;;;;12.80;5.28;;;;;;;30.33;54.77;101188.19;4973580;28;20022;-88
2023/09/11 12:30:56;;;;;;;7.63;5.22;;;;;;;30.32;52.15;101187.41;4959456;28;20019;-88
2023/09/11 12:33:24;;;;;;;9.13;5.03;;;;;;;30.36;52.78;101185.44;4954436;29;20060;-89
2023/09/11 12:35:56;;;;;;;11.02;5.40;;;;;;;30.41;54.15;101191.78;4952545;29;20065;-88
2023/09/11 12:38:22;;;;;;;10.90;5.07;;;;;;;30.42;52.79;101191.41;4948296;29;20495;-89
2023/09/11 12:40:48;;;;;;;5.72;4.82;;;;;;;30.37;52.52;101184.28;4953590;29;20041;-88
2023/09/11 12:43:14;;;;;;;6.50;4.60;;;;;;;30.35;50.94;101186.63;4954576;29;20035;-89
2023/09/11 12:45:40;;;;;;;6.40;4.45;;;;;;;30.35;51.82;101186.63;4953497;29;20027;-89
2023/09/11 12:48:06;;;;;;;6.43;4.10;;;;;;;30.59;50.95;101187.19;4952015;29;20035;-89
2023/09/11 12:50:32;;;;;;;7.50;4.32;;;;;;;30.65;50.72;101180.09;4953649;29;20154;-89
2023/09/11 12:53:01;;;;;;;5.22;3.90;;;;;;;30.95;50.72;101186.53;4948102;28;20069;-89
2023/09/11 12:55:28;;;;;;;6.00;4.20;;;;;;;31.18;47.54;101197.31;4972984;28;20056;-89
2023/09/11 12:57:57;;;;;;;9.27;4.22;;;;;;;31.33;50.96;101186.25;4964459;28;20027;-89
2023/09/11 13:00:34;;;;;;;8.07;4.63;;;;;;;31.45;50.62;101194.16;4953251;29;20509;-89
2023/09/11 13:03:01;;;;;;;8.40;4.97;;;;;;;31.48;47.47;101190.63;4953060;29;20023;-88
2023/09/11 13:05:28;;;;;;;8.77;4.88;;;;;;;31.30;47.99;101181.50;4947237;29;20119;-89
2023/09/11 13:07:54;;;;;;;8.45;4.82;;;;;;;31.03;48.02;101181.81;4953015;29;20494;-88
2023/09/11 13:10:20;;;;;;;10.93;4.40;;;;;;;31.08;51.17;101178.66;4951989;29;20122;-88
2023/09/11 13:12:47;;;;;;;9.88;4.90;;;;;;;31.12;51.19;101176.69;4952791;29;20035;-88
2023/09/11 13:15:14;;;;;;;9.00;4.03;;;;;;;31.30;50.98;101175.97;4951295;29;20119;-88
2023/09/11 13:17:39;;;;;;;10.63;4.53;;;;;;;31.30;48.82;101176.78;4953585;29;20114;-88
2023/09/11 13:20:05;;;;;;;15.57;5.27;;;;;;;31.11;48.34;101172.34;4953205;29;20138;-88
2023/09/11 13:22:31;;;;;;;6.50;4.32;;;;;;;31.27;50.47;101191.38;4952976;29;20372;-88
2023/09/11 13:24:57;;;;;;;7.10;4.47;;;;;;;31.51;48.36;101189.84;4952630;29;20026;-89
2023/09/11 13:27:22;;;;;;;9.53;4.67;;;;;;;31.47;47.90;101180.72;4952087;29;20023;-88
2023/09/11 13:29:48;;;;;;;6.50;4.63;;;;;;;31.48;48.39;101178.78;4951768;29;20035;-89
2023/09/11 13:32:13;;;;;;;8.27;4.20;;;;;;;31.43;47.62;101179.94;4952655;28;20049;-89
2023/09/11 13:34:38;;;;;;;6.13;3.70;;;;;;;31.36;48.09;101179.94;4953354;29;20047;-89
2023/09/11 13:37:04;;;;;;;9.53;4.10;;;;;;;31.46;47.46;101173.59;4955056;29;20061;-89
2023/09/11 13:39:29;;;;;;;6.40;4.07;;;;;;;31.36;46.44;101157.78;4950256;29;20733;-88
2023/09/11 13:41:54;;;;;;;7.77;4.37;;;;;;;31.39;46.17;101162.56;4945596;29;20031;-88
2023/09/11 13:44:20;;;;;;;8.27;3.93;;;;;;;31.41;46.43;101166.50;4954004;29;20034;-89
2023/09/11 13:46:45;;;;;;;8.10;4.20;;;;;;;31.26;46.77;101160.13;4952378;29;20030;-89
2023/09/11 13:49:10;;;;;;;9.70;4.30;;;;;;;31.39;47.28;101163.31;4952892;29;20046;-89
2023/09/11 13:51:35;;;;;;;8.87;3.90;;;;;;;31.54;48.99;101158.59;4951950;29;20366;-89
2023/09/11 13:54:01;;;;;;;7.83;3.90;;;;;;;31.47;46.49;101153.03;4951537;29;20039;-88
2023/09/11 13:56:26;;;;;;;4.70;4.20;;;;;;;31.65;47.59;101155.03;4952726;29;20023;-89
2023/09/11 13:58:51;;;;;;;7.67;4.50;;;;;;;31.59;48.18;101159.41;4949247;29;20035;-89
2023/09/11 14:01:17;;;;;;;10.63;3.90;;;;;;;31.55;48.05;101156.59;4942691;29;20114;-89
2023/09/11 14:03:42;;;;;;;9.20;4.43;;;;;;;31.87;46.67;101158.59;4952126;29;20027;-90
2023/09/11 14:06:07;;;;;;;7.77;4.30;;;;;;;32.01;45.96;101160.56;4953491;29;20434;-90
2023/09/11 14:08:33;;;;;;;7.43;4.33;;;;;;;32.14;46.44;101150.63;4952510;29;20031;-90
2023/09/11 14:11:00;;;;;;;10.83;4.90;;;;;;;32.15;45.03;101162.50;4952777;29;20062;-89
2023/09/11 14:13:26;;;;;;;5.65;4.72;;;;;;;32.00;46.00;101162.56;4950687;29;20427;-89
2023/09/11 14:15:51;;;;;;;5.90;4.72;;;;;;;31.65;45.75;101157.78;4952713;29;20067;-88
2023/09/11 14:18:16;;;;;;;6.60;4.23;;;;;;;31.60;47.77;101161.75;4953100;29;20051;-89
2023/09/11 14:20:42;;;;;;;6.80;4.30;;;;;;;31.41;47.81;101154.63;4953118;28;20098;-89
2023/09/11 14:23:08;;;;;;;7.53;4.22;;;;;;;31.39;48.26;101151.47;4957700;28;20070;-87
2023/09/11 14:25:33;;;;;;;11.13;4.90;;;;;;;31.59;47.81;101149.09;4955596;29;20106;-89
2023/09/11 14:27:59;;;;;;;7.20;4.40;;;;;;;31.91;47.13;101155.84;4954278;29;20478;-88
2023/09/11 14:30:25;;;;;;;5.80;4.30;;;;;;;32.12;46.11;101164.13;4955236;29;20034;-88
2023/09/11 14:32:50;;;;;;;11.38;4.65;;;;;;;32.33;47.65;101170.78;4952953;29;20055;-88
2023/09/11 14:35:16;;;;;;;8.47;4.07;;;;;;;32.53;46.13;101154.50;4952503;29;20123;-87
2023/09/11 14:37:42;;;;;;;9.00;4.75;;;;;;;32.58;46.44;101158.84;4944271;29;20026;-89
2023/09/11 14:40:09;;;;;;;6.23;4.17;;;;;;;32.55;46.18;101156.88;4954099;29;20301;-90
2023/09/11 14:42:34;;;;;;;6.25;3.92;;;;;;;32.35;46.20;101149.00;4953114;28;20360;-88
2023/09/11 14:45:00;;;;;;;7.33;4.60;;;;;;;32.28;46.36;101158.16;4954083;29;20030;-89
2023/09/11 14:47:26;;;;;;;6.23;4.27;;;;;;;32.10;46.96;101155.41;4948205;29;20109;-88
2023/09/11 14:49:52;;;;;;;9.02;4.55;;;;;;;31.85;47.67;101156.22;4942287;29;20111;-88
2023/09/11 14:52:17;;;;;;;10.87;4.17;;;;;;;31.48;47.47;101151.09;4940705;29;20077;-88
2023/09/11 14:54:42;;;;;;;8.87;5.23;;;;;;;31.38;48.99;101149.88;4953620;29;20279;-87
2023/09/11 14:57:08;;;;;;;10.10;5.30;;;;;;;30.92;51.31;101156.91;4953722;29;20043;-88
2023/09/11 14:59:33;;;;;;;7.97;4.93;;;;;;;30.65;53.33;101155.22;4952691;29;20043;-87
2023/09/11 15:01:58;;;;;;;10.80;5.63;;;;;;;30.54;53.73;101140.53;4953571;29;20119;-88
2023/09/11 15:04:23;;;;;;;13.90;5.50;;;;;;;30.43;53.40;101147.97;4952611;29;20118;-88
2023/09/11 15:06:50;;;;;;;12.33;5.57;;;;;;;30.33;54.97;101155.81;4951019;29;20039;-88
2023/09/11 15:09:15;;;;;;;9.55;5.32;;;;;;;30.28;56.02;101158.16;4951982;29;20027;-87
2023/09/11 15:11:40;;;;;;;11.10;5.53;;;;;;;30.33;55.84;101164.09;4952600;29;20113;-89
2023/09/11 15:14:06;;;;;;;8.07;5.47;;;;;;;30.48;56.00;101159.47;4950762;29;20098;-87
2023/09/11 15:16:32;;;;;;;9.33;5.77;;;;;;;30.55;55.41;101161.47;4939141;29;20042;-87
2023/09/11 15:18:58;;;;;;;7.53;5.53;;;;;;;30.39;55.56;101167.31;4941160;29;20035;-88
2023/09/11 15:21:24;;;;;;;10.70;5.73;;;;;;;30.37;57.06;101173.22;4945890;29;20381;-89
2023/09/11 15:23:49;;;;;;;13.00;6.50;;;;;;;30.00;57.69;101176.94;4944175;29;20062;-88
2023/09/11 15:26:15;;;;;;;12.57;5.87;;;;;;;29.71;59.34;101165.66;4943613;29;20060;-88
2023/09/11 15:28:40;;;;;;;10.73;6.20;;;;;;;29.57;59.83;101179.34;4950753;29;20395;-88
2023/09/11 15:31:05;;;;;;;10.88;5.80;;;;;;;29.30;61.22;101182.19;4953553;29;20502;-88
2023/09/11 15:33:31;;;;;;;11.07;5.97;;;;;;;29.23;62.40;101185.69;4955093;29;20035;-88
2023/09/11 15:36:05;;;;;;;13.73;5.40;;;;;;;29.07;61.69;101172.09;4955807;29;20015;-90
2023/09/11 15:38:31;;;;;;;11.20;5.35;;;;;;;28.89;62.97;101168.34;4954553;29;20047;-90
2023/09/11 15:41:05;;;;;;;12.40;6.20;;;;;;;28.83;63.21;101176.97;4953990;29;20082;-91
2023/09/11 15:43:41;;;;;;;8.57;5.47;;;;;;;28.75;64.09;101174.50;4958446;29;20028;-92
2023/09/11 15:46:08;;;;;;;10.00;5.90;;;;;;;28.71;64.76;101177.16;4960341;29;20299;-92
2023/09/11 15:48:36;;;;;;;8.40;5.40;;;;;;;28.63;64.09;101181.78;4959236;29;20035;-96
2023/09/11 15:51:03;;;;;;;12.02;5.50;;;;;;;28.48;63.97;101180.03;4960228;29;20455;-95
2023/09/11 15:53:29;;;;;;;9.73;5.57;;;;;;;28.27;63.96;101164.78;4941604;29;20069;-96
2023/09/11 15:55:56;;;;;;;11.05;5.70;;;;;;;28.25;64.24;101181.69;4944006;29;20035;-96
2023/09/11 15:58:23;;;;;;;8.20;5.10;;;;;;;28.22;64.68;101178.84;4942232;29;20554;-89
2023/09/11 16:00:51;;;;;;;6.50;5.17;;;;;;;28.26;64.04;101186.03;4955856;29;20274;-91
2023/09/11 16:03:17;;;;;;;10.23;5.50;;;;;;;28.23;64.63;101178.50;4950257;29;20027;-89
2023/09/11 16:05:43;;;;;;;12.85;6.60;;;;;;;28.15;65.10;101170.50;4947251;28;20035;-88
2023/09/11 16:08:09;;;;;;;13.43;6.65;;;;;;;28.17;65.48;101176.44;4954923;29;20042;-89
2023/09/11 16:10:35;;;;;;;13.35;6.72;;;;;;;28.03;66.16;101161.25;4937451;29;20031;-90
2023/09/11 16:13:01;;;;;;;10.57;6.63;;;;;;;27.86;67.30;101159.81;4956662;29;20031;-89
2023/09/11 16:15:32;;;;;;;15.13;6.45;;;;;;;27.83;68.23;101157.81;4953958;29;20105;-89
2023/09/11 16:17:58;;;;;;;15.00;7.53;;;;;;;27.76;68.01;101160.44;4953947;29;20039;-89
2023/09/11 16:20:26;;;;;;;15.23;7.60;;;;;;;27.73;68.51;101155.69;4955945;29;20026;-90
2023/09/11 16:22:53;;;;;;;11.80;8.23;;;;;;;27.57;69.80;101155.78;4954184;29;20132;-88
2023/09/11 16:25:19;;;;;;;9.95;7.68;;;;;;;27.45;70.74;101152.03;4954103;29;20546;-88
2023/09/11 16:27:44;;;;;;;13.00;8.43;;;;;;;27.29;71.54;101137.59;4954027;29;20027;-90
2023/09/11 16:30:10;;;;;;;14.73;8.27;;;;;;;27.24;71.46;101146.94;4955303;29;20436;-90
2023/09/11 16:32:35;;;;;;;10.23;7.33;;;;;;;27.31;73.07;101151.78;4952986;29;20453;-89
2023/09/11 16:35:01;;;;;;;12.50;8.40;;;;;;;27.15;73.08;101141.66;4956111;29;20550;-89
2023/09/11 16:37:27;;;;;;;13.73;8.27;;;;;;;27.05;71.92;101137.56;4947647;29;20194;-89
2023/09/11 16:39:52;;;;;;;8.87;7.13;;;;;;;26.78;72.76;101124.81;4958725;29;20404;-88
2023/09/11 16:42:17;;;;;;;13.90;8.00;;;;;;;26.85;72.89;101127.72;4957853;29;20054;-89
2023/09/11 16:44:44;;;;;;;11.98;7.22;;;;;;;26.67;73.63;101128.13;4956776;29;20704;-88
2023/09/11 16:47:10;;;;;;;16.20;7.80;;;;;;;26.76;72.55;101126.00;4955316;29;20118;-89
2023/09/11 16:49:36;;;;;;;12.38;7.75;;;;;;;26.63;72.25;101131.97;4956928;29;20452;-90
2023/09/11 16:52:03;;;;;;;10.37;8.83;;;;;;;26.56;73.11;101130.69;4951286;29;20064;-87
2023/09/11 16:54:28;;;;;;;15.38;8.35;;;;;;;26.35;73.69;101127.47;4955072;28;20040;-88
2023/09/11 16:56:54;;;;;;;8.87;7.93;;;;;;;26.37;75.22;101131.44;4953742;28;20035;-88
2023/09/11 16:59:19;;;;;;;9.40;8.43;;;;;;;26.26;74.86;101135.94;4958694;28;20389;-89
2023/09/11 17:01:45;;;;;;;11.32;8.13;;;;;;;26.11;75.07;101121.03;4942321;29;20497;-89
2023/09/11 17:04:10;;;;;;;9.30;7.90;;;;;;;25.98;74.90;101117.59;4955875;29;20454;-90
2023/09/11 17:06:36;;;;;;;13.67;8.83;;;;;;;25.88;75.00;101120.91;4956578;28;20114;-90
2023/09/11 17:09:01;;;;;;;12.97;7.47;;;;;;;25.82;75.89;101125.88;4964492;28;20102;-89
2023/09/11 17:11:26;;;;;;;10.57;8.20;;;;;;;25.74;76.35;101122.16;4971311;28;20061;-89
2023/09/11 17:13:52;;;;;;;11.55;7.10;;;;;;;25.70;78.49;101126.75;4965530;28;20047;-89
2023/09/11 17:16:20;;;;;;;8.70;6.40;;;;;;;25.74;78.22;101124.91;4959935;28;20548;-89
2023/09/11 17:18:46;;;;;;;10.65;6.57;;;;;;;25.66;77.58;101115.69;4949376;29;20035;-88
2023/09/11 17:21:12;;;;;;;9.77;6.50;;;;;;;25.61;78.09;101101.44;4954487;29;20509;-88
2023/09/11 17:23:38;;;;;;;8.27;5.63;;;;;;;25.64;78.72;101098.00;4951918;29;20046;-89
2023/09/11 17:26:04;;;;;;;7.15;6.20;;;;;;;25.53;79.05;101094.97;4952779;29;20069;-89
2023/09/11 17:28:30;;;;;;;11.18;5.97;;;;;;;25.50;78.37;101091.00;4951985;29;20035;-88
2023/09/11 17:30:56;;;;;;;13.02;6.43;;;;;;;25.43;80.18;101082.59;4954444;29;20027;-90
2023/09/11 17:33:21;;;;;;;8.80;6.20;;;;;;;25.39;80.91;101098.94;4954241;29;20057;-88
2023/09/11 17:35:46;;;;;;;11.93;5.93;;;;;;;25.24;82.19;101111.47;4971358;28;20034;-88
2023/09/11 17:38:12;;;;;;;6.83;6.17;;;;;;;25.11;80.84;101109.94;4975332;28;20030;-89
2023/09/11 17:40:37;;;;;;;9.40;6.40;;;;;;;25.16;79.63;101115.19;4973009;28;20039;-88
2023/09/11 17:43:04;;;;;;;9.40;6.33;;;;;;;25.05;78.87;101117.63;4958540;28;20317;-89
2023/09/11 17:45:29;;;;;;;9.57;6.17;;;;;;;24.99;81.10;101121.78;4961548;28;20126;-88
2023/09/11 17:47:55;;;;;;;14.13;7.50;;;;;;;24.99;81.03;101123.72;4942002;29;20965;-90
2023/09/11 17:50:20;;;;;;;7.63;6.73;;;;;;;24.90;82.80;101121.91;4956315;28;20046;-89
2023/09/11 17:52:46;;;;;;;10.50;6.97;;;;;;;24.88;83.58;101117.94;4964661;29;20351;-92
2023/09/11 17:55:12;;;;;;;8.13;7.20;;;;;;;24.76;83.86;101116.81;4960628;29;20275;-93
2023/09/11 17:57:37;;;;;;;10.20;6.95;;;;;;;24.73;84.06;101124.94;4953313;29;20098;-93